Time;durP1;ratioP1;P1;durP2;ratioP2;P2;SDS_P1;SDS_P2;PMS_P1;PMS_P2;Temp;Humidity;BMP_temperature;BMP_pressure;BME280_temperature;BME280_humidity;BME280_pressure;Samples;Min_cycle;Max_cycle;Signal;HPM_P1;HPM_P2
2021/03/08 00:01:04;;;;;;;27.45;12.10;;;;;;;2.59;88.98;101820.84;4914221;29;20428;-71
2021/03/08 00:03:30;;;;;;;24.98;11.52;;;;;;;2.57;88.92;101823.53;4915180;29;20090;-70
2021/03/08 00:05:55;;;;;;;21.55;12.05;;;;;;;2.58;88.91;101819.09;4913723;29;20743;-70
2021/03/08 00:08:21;;;;;;;19.90;11.02;;;;;;;2.57;89.06;101820.00;4914269;29;20504;-70
2021/03/08 00:10:46;;;;;;;23.00;12.13;;;;;;;2.57;89.20;101822.63;4913482;29;20043;-70
2021/03/08 00:13:12;;;;;;;23.77;11.68;;;;;;;2.57;89.02;101818.22;4912797;29;20024;-70
2021/03/08 00:15:37;;;;;;;20.38;10.95;;;;;;;2.60;88.97;101811.97;4913468;29;20051;-71
2021/03/08 00:18:03;;;;;;;24.67;11.57;;;;;;;2.58;88.70;101809.38;4912872;29;20451;-70
2021/03/08 00:20:28;;;;;;;19.83;11.13;;;;;;;2.57;88.60;101806.75;4902631;29;20095;-71
2021/03/08 00:22:55;;;;;;;24.25;11.95;;;;;;;2.59;88.39;101804.94;4915124;29;20036;-70
2021/03/08 00:25:32;;;;;;;21.67;11.60;;;;;;;2.57;87.87;101801.44;4913263;29;20040;-70
2021/03/08 00:27:58;;;;;;;26.75;11.80;;;;;;;2.54;88.11;101807.66;4911903;29;20048;-70
2021/03/08 00:30:24;;;;;;;23.95;11.90;;;;;;;2.51;88.40;101801.53;4913864;29;20063;-71
2021/03/08 00:32:49;;;;;;;22.67;12.23;;;;;;;2.52;88.57;101808.59;4912648;29;20168;-70
2021/03/08 00:35:16;;;;;;;32.85;13.13;;;;;;;2.51;88.76;101801.53;4913367;29;20040;-71
2021/03/08 00:37:42;;;;;;;26.23;13.30;;;;;;;2.50;89.19;101800.66;4916155;29;20035;-70
2021/03/08 00:40:11;;;;;;;24.05;12.68;;;;;;;2.50;89.23;101808.59;4912034;29;20487;-70
2021/03/08 00:42:36;;;;;;;26.45;13.55;;;;;;;2.52;89.32;101796.22;4900775;29;20111;-70
2021/03/08 00:45:07;;;;;;;28.95;14.10;;;;;;;2.53;89.14;101794.44;4913651;29;20480;-70
2021/03/08 00:47:33;;;;;;;30.77;14.77;;;;;;;2.59;88.96;101792.59;4911283;29;20036;-70
2021/03/08 00:50:00;;;;;;;28.00;13.82;;;;;;;2.68;88.72;101783.59;4894498;29;20036;-71
2021/03/08 00:52:27;;;;;;;27.48;13.07;;;;;;;2.62;89.35;101799.59;4916417;29;20054;-70
2021/03/08 00:54:52;;;;;;;30.30;15.18;;;;;;;2.60;89.65;101811.97;4895468;29;20476;-70
2021/03/08 00:57:19;;;;;;;31.83;15.30;;;;;;;2.63;89.53;101811.94;4915269;29;20518;-70
2021/03/08 00:59:48;;;;;;;28.40;14.35;;;;;;;2.60;90.36;101806.69;4913822;29;20083;-70
2021/03/08 01:02:14;;;;;;;31.42;15.25;;;;;;;2.59;90.55;101815.56;4895098;29;20377;-70
2021/03/08 01:04:41;;;;;;;29.75;14.38;;;;;;;2.58;90.75;101813.78;4894035;29;20024;-70
2021/03/08 01:07:07;;;;;;;29.77;15.25;;;;;;;2.60;90.77;101811.97;4903230;29;20490;-70
2021/03/08 01:09:32;;;;;;;31.25;15.32;;;;;;;2.59;90.95;101804.94;4895611;29;20039;-70
2021/03/08 01:11:59;;;;;;;28.92;14.88;;;;;;;2.58;90.83;101803.19;4899898;29;20024;-70
2021/03/08 01:14:29;;;;;;;31.75;15.63;;;;;;;2.66;90.90;101796.00;4895120;29;20028;-70
2021/03/08 01:16:54;;;;;;;28.83;14.80;;;;;;;2.62;91.20;101804.88;4910848;29;20107;-70
2021/03/08 01:19:20;;;;;;;36.53;17.05;;;;;;;2.60;91.10;101801.38;4911277;29;20036;-70
2021/03/08 01:21:45;;;;;;;35.22;15.98;;;;;;;2.61;91.07;101792.53;4911899;29;20389;-70
2021/03/08 01:24:11;;;;;;;32.72;15.38;;;;;;;2.60;91.17;101786.34;4911089;29;20040;-70
2021/03/08 01:26:36;;;;;;;32.10;15.40;;;;;;;2.61;91.20;101787.22;4917292;29;20184;-70
2021/03/08 01:29:03;;;;;;;35.00;16.88;;;;;;;2.61;91.14;101776.63;4913040;29;20456;-70
2021/03/08 01:31:28;;;;;;;35.70;15.52;;;;;;;2.61;91.14;101785.47;4896256;29;20047;-70
2021/03/08 01:33:54;;;;;;;33.40;15.13;;;;;;;2.60;91.08;101783.69;4910609;29;20039;-70
2021/03/08 01:36:19;;;;;;;34.10;15.15;;;;;;;2.61;90.99;101787.22;4911400;29;20041;-70
2021/03/08 01:38:45;;;;;;;32.70;15.00;;;;;;;2.61;91.11;101777.50;4910623;29;20122;-70
2021/03/08 01:41:11;;;;;;;30.73;16.27;;;;;;;2.62;91.33;101783.69;4911242;29;20118;-70
2021/03/08 01:43:36;;;;;;;31.38;14.73;;;;;;;2.59;91.79;101781.09;4910881;29;20687;-70
2021/03/08 01:46:02;;;;;;;31.63;15.18;;;;;;;2.60;91.94;101775.75;4916136;29;20027;-70
2021/03/08 01:48:28;;;;;;;32.63;14.52;;;;;;;2.58;92.02;101768.75;4909118;29;20039;-70
2021/03/08 01:50:54;;;;;;;30.13;14.55;;;;;;;2.57;92.14;101774.94;4893992;29;20471;-70
2021/03/08 01:53:20;;;;;;;31.15;16.17;;;;;;;2.58;91.97;101766.09;4910934;29;20660;-70
2021/03/08 01:55:46;;;;;;;26.92;14.43;;;;;;;2.56;92.17;101770.53;4911591;29;20035;-70
2021/03/08 01:58:11;;;;;;;31.55;14.60;;;;;;;2.58;92.10;101766.09;4910017;29;20036;-70
2021/03/08 02:00:38;;;;;;;31.88;15.00;;;;;;;2.57;92.34;101764.34;4911966;29;20047;-70
2021/03/08 02:03:04;;;;;;;39.20;16.67;;;;;;;2.57;92.34;101761.69;4909369;29;20039;-71
2021/03/08 02:05:32;;;;;;;41.42;17.25;;;;;;;2.55;92.16;101771.41;4896142;29;20068;-70
2021/03/08 02:07:58;;;;;;;40.40;17.00;;;;;;;2.55;92.11;101760.81;4905363;29;20039;-70
2021/03/08 02:10:28;;;;;;;42.45;17.27;;;;;;;2.55;91.99;101760.81;4910395;29;20040;-70
2021/03/08 02:13:32;;;;;;;37.70;17.95;;;;;;;2.60;91.71;101764.28;4910283;29;20414;-70
2021/03/08 02:16:39;;;;;;;39.22;16.77;;;;;;;2.57;91.97;101759.03;4878696;29;20063;-70
2021/03/08 02:19:38;;;;;;;38.70;16.75;;;;;;;2.56;91.82;101760.81;4898676;29;20040;-70
2021/03/08 02:22:48;;;;;;;41.30;17.85;;;;;;;2.57;91.56;101756.38;4911224;29;20036;-70
2021/03/08 02:25:35;;;;;;;33.72;17.33;;;;;;;2.56;91.56;101752.84;4889784;29;20094;-70
2021/03/08 02:28:37;;;;;;;41.55;18.60;;;;;;;2.57;91.51;101753.72;4905191;29;20063;-70
2021/03/08 02:31:07;;;;;;;41.78;17.67;;;;;;;2.55;91.77;101756.41;4911273;29;20235;-70
2021/03/08 02:33:35;;;;;;;42.00;18.42;;;;;;;2.57;91.86;101751.97;4910084;29;20040;-70
2021/03/08 02:36:06;;;;;;;38.50;18.40;;;;;;;2.56;92.12;101751.97;4910642;29;20055;-70
2021/03/08 02:38:43;;;;;;;36.03;17.77;;;;;;;2.57;92.23;101749.31;4906522;29;20046;-70
2021/03/08 02:41:18;;;;;;;38.83;17.65;;;;;;;2.60;92.18;101751.00;4894769;29;20547;-70
2021/03/08 02:43:58;;;;;;;36.65;17.38;;;;;;;2.62;92.42;101746.59;4913410;29;20039;-70
2021/03/08 02:46:29;;;;;;;40.50;18.52;;;;;;;2.59;92.63;101746.66;4911663;29;20128;-70
2021/03/08 02:49:01;;;;;;;40.35;17.48;;;;;;;2.55;92.66;101742.28;4909866;29;20051;-70
2021/03/08 02:51:30;;;;;;;42.72;18.85;;;;;;;2.54;92.93;101738.75;4897421;29;20067;-70
2021/03/08 02:53:59;;;;;;;38.28;16.55;;;;;;;2.52;93.15;101745.84;4906582;29;20403;-70
2021/03/08 02:56:30;;;;;;;41.70;17.58;;;;;;;2.50;93.24;101737.03;4909917;29;20055;-70
2021/03/08 02:58:56;;;;;;;41.55;16.73;;;;;;;2.51;93.37;101740.56;4909159;29;20074;-70
2021/03/08 03:01:23;;;;;;;37.78;17.65;;;;;;;2.48;93.53;101733.53;4910889;29;20491;-70
2021/03/08 03:03:52;;;;;;;37.95;17.45;;;;;;;2.48;93.49;101732.66;4909481;29;20043;-70
2021/03/08 03:06:20;;;;;;;40.85;19.70;;;;;;;2.47;93.48;101734.41;4909919;29;20071;-70
2021/03/08 03:08:46;;;;;;;42.90;18.70;;;;;;;2.47;93.48;101736.22;4912785;29;20483;-70
2021/03/08 03:11:13;;;;;;;46.65;20.35;;;;;;;2.46;93.61;101734.47;4906603;29;20040;-70
2021/03/08 03:13:42;;;;;;;49.97;19.83;;;;;;;2.45;93.44;101736.25;4908603;29;21996;-70
2021/03/08 03:16:08;;;;;;;47.88;19.55;;;;;;;2.45;93.50;101728.28;4905169;29;20547;-70
2021/03/08 03:18:36;;;;;;;42.88;18.77;;;;;;;2.46;93.31;101737.13;4909004;29;20063;-70
2021/03/08 03:21:04;;;;;;;55.72;19.45;;;;;;;2.44;93.82;101739.78;4908515;29;20068;-70
2021/03/08 03:23:32;;;;;;;44.72;20.00;;;;;;;2.43;93.88;101730.97;4909124;29;20028;-70
2021/03/08 03:26:00;;;;;;;46.28;19.67;;;;;;;2.42;94.06;101729.19;4909958;29;20047;-70
2021/03/08 03:28:29;;;;;;;46.42;19.92;;;;;;;2.42;94.11;101734.50;4907957;29;20120;-70
2021/03/08 03:30:57;;;;;;;43.95;19.50;;;;;;;2.40;94.41;101733.66;4910408;29;20032;-70
2021/03/08 03:33:23;;;;;;;49.20;21.13;;;;;;;2.39;94.68;101734.56;4907764;29;20204;-70
2021/03/08 03:35:49;;;;;;;48.72;19.50;;;;;;;2.42;94.69;101733.63;4908906;29;20587;-70
2021/03/08 03:38:19;;;;;;;49.28;21.13;;;;;;;2.38;94.90;101726.63;4908542;29;20032;-70
2021/03/08 03:40:45;;;;;;;49.47;21.38;;;;;;;2.37;95.09;101731.06;4908966;29;20032;-70
2021/03/08 03:43:10;;;;;;;47.53;20.40;;;;;;;2.37;95.10;101735.47;4909474;29;20095;-70
2021/03/08 03:45:35;;;;;;;51.08;20.92;;;;;;;2.38;94.96;101732.81;4910157;29;20107;-70
2021/03/08 03:48:01;;;;;;;51.03;21.70;;;;;;;2.38;95.15;101731.94;4909232;29;20077;-70
2021/03/08 03:50:27;;;;;;;53.90;21.92;;;;;;;2.38;95.11;101738.09;4909962;29;20624;-70
2021/03/08 03:52:53;;;;;;;58.50;22.83;;;;;;;2.36;95.16;101731.06;4908909;29;20099;-70
2021/03/08 03:55:20;;;;;;;63.38;24.02;;;;;;;2.36;95.29;101737.25;4908739;29;20039;-70
2021/03/08 03:58:30;;;;;;;63.15;25.05;;;;;;;2.37;95.23;101731.06;4910155;29;20557;-70
2021/03/08 04:01:02;;;;;;;91.47;30.70;;;;;;;2.39;95.24;101745.16;4859418;29;20099;-70
2021/03/08 04:04:01;;;;;;;97.82;34.97;;;;;;;2.37;95.38;101738.13;4907679;29;20047;-70
2021/03/08 04:06:33;;;;;;;224.88;64.72;;;;;;;2.37;95.57;101735.47;4909888;29;20107;-70
2021/03/08 04:09:00;;;;;;;121.53;41.90;;;;;;;2.36;95.78;101744.31;4908892;29;20039;-70
2021/03/08 04:11:30;;;;;;;90.78;33.17;;;;;;;2.35;95.90;101740.78;4909304;29;20163;-70
2021/03/08 04:13:57;;;;;;;78.90;30.77;;;;;;;2.37;95.86;101746.06;4907642;29;20024;-70
2021/03/08 04:16:25;;;;;;;71.85;29.90;;;;;;;2.37;95.91;101754.91;4909586;29;20032;-70
2021/03/08 04:18:52;;;;;;;64.18;26.85;;;;;;;2.36;96.38;101755.78;4909239;29;20483;-70
2021/03/08 04:21:19;;;;;;;68.32;26.70;;;;;;;2.46;96.21;101753.03;4909368;29;20123;-70
2021/03/08 04:23:46;;;;;;;66.20;25.77;;;;;;;2.43;96.29;101749.50;4908262;29;20036;-70
2021/03/08 04:26:13;;;;;;;76.18;31.27;;;;;;;2.45;96.43;101757.44;4910361;29;20119;-70
2021/03/08 04:28:41;;;;;;;70.50;27.42;;;;;;;2.42;96.67;101760.13;4907403;29;20043;-70
2021/03/08 04:31:07;;;;;;;68.65;28.20;;;;;;;2.54;96.59;101759.06;4909012;29;20034;-70
2021/03/08 04:33:32;;;;;;;75.43;29.27;;;;;;;2.51;96.63;101753.81;4909962;29;20040;-70
2021/03/08 04:35:59;;;;;;;68.97;28.30;;;;;;;2.41;97.09;101761.88;4913212;29;20051;-70
2021/03/08 04:38:26;;;;;;;70.43;28.02;;;;;;;2.41;97.29;101761.88;4895626;29;20492;-70
2021/03/08 04:40:53;;;;;;;76.35;29.25;;;;;;;2.38;97.56;101764.59;4913265;29;20036;-70
2021/03/08 04:43:18;;;;;;;69.63;29.63;;;;;;;2.35;97.57;101764.63;4909389;29;20036;-70
2021/03/08 04:45:44;;;;;;;67.45;27.45;;;;;;;2.36;97.51;101760.19;4906670;29;20115;-70
2021/03/08 04:48:10;;;;;;;69.95;28.48;;;;;;;2.34;97.53;101768.19;4909554;29;20032;-70
2021/03/08 04:50:36;;;;;;;68.43;28.02;;;;;;;2.40;97.47;101768.13;4912777;29;20032;-70
2021/03/08 04:53:03;;;;;;;81.38;28.58;;;;;;;2.39;97.50;101766.34;4911088;29;20515;-70
2021/03/08 04:55:31;;;;;;;69.75;27.65;;;;;;;2.39;97.49;101771.66;4912673;29;20052;-70
2021/03/08 04:57:56;;;;;;;68.78;28.20;;;;;;;2.36;97.59;101754.91;4911750;29;20047;-70
2021/03/08 05:00:22;;;;;;;63.17;26.33;;;;;;;2.40;97.38;101768.13;4911622;29;20044;-70
2021/03/08 05:02:51;;;;;;;73.43;29.38;;;;;;;2.33;97.71;101766.44;4912608;29;20036;-70
2021/03/08 05:05:20;;;;;;;65.53;27.52;;;;;;;2.32;97.90;101763.81;4910743;29;20067;-70
2021/03/08 05:07:46;;;;;;;67.93;27.73;;;;;;;2.36;97.97;101762.84;4912643;29;20479;-70
2021/03/08 05:10:17;;;;;;;66.88;27.05;;;;;;;2.30;98.15;101766.47;4911645;29;20048;-70
2021/03/08 05:12:43;;;;;;;68.90;27.80;;;;;;;2.33;98.28;101766.44;4913532;29;20047;-70
2021/03/08 05:15:11;;;;;;;76.05;28.48;;;;;;;2.32;98.45;101769.09;4910839;29;20032;-70
2021/03/08 05:17:38;;;;;;;72.13;29.08;;;;;;;2.29;98.72;101764.72;4913106;29;20583;-70
2021/03/08 05:20:06;;;;;;;77.03;30.02;;;;;;;2.28;98.95;101770.94;4895205;29;20036;-70
2021/03/08 05:22:34;;;;;;;73.43;28.52;;;;;;;2.34;98.78;101768.19;4909515;29;20159;-70
2021/03/08 05:25:00;;;;;;;74.03;28.90;;;;;;;2.30;98.90;101766.47;4910615;29;20119;-70
2021/03/08 05:27:29;;;;;;;74.75;30.02;;;;;;;2.29;99.14;101772.66;4910483;29;20495;-70
2021/03/08 05:29:55;;;;;;;75.13;29.30;;;;;;;2.28;99.16;101773.59;4911564;29;20485;-70
2021/03/08 05:32:49;;;;;;;85.25;29.88;;;;;;;2.29;99.23;101772.66;4912055;29;20126;-70
2021/03/08 05:35:15;;;;;;;88.90;33.25;;;;;;;2.35;99.23;101769.03;4906576;29;20135;-70
2021/03/08 05:37:42;;;;;;;86.10;33.67;;;;;;;2.34;99.24;101773.50;4911223;29;20171;-70
2021/03/08 05:40:40;;;;;;;82.68;32.17;;;;;;;2.31;99.54;101764.69;4910645;29;21713;-70
2021/03/08 05:43:11;;;;;;;85.90;32.20;;;;;;;2.28;99.78;101767.41;4886618;29;20062;-70
2021/03/08 05:45:44;;;;;;;80.97;31.92;;;;;;;2.27;99.82;101769.19;4911162;29;20157;-70
2021/03/08 05:48:40;;;;;;;83.65;31.67;;;;;;;2.25;99.93;101768.31;4909804;29;20391;-70
2021/03/08 05:51:30;;;;;;;85.28;30.55;;;;;;;2.25;99.92;101778.91;4911611;29;20032;-70
2021/03/08 05:54:13;;;;;;;82.18;32.05;;;;;;;2.25;100.00;101776.25;4910844;29;20150;-70
2021/03/08 05:57:04;;;;;;;83.03;31.67;;;;;;;2.26;100.00;101780.66;4909824;29;20488;-70
2021/03/08 05:59:53;;;;;;;85.43;30.73;;;;;;;2.24;100.00;101785.09;4910467;29;20043;-70
2021/03/08 06:02:49;;;;;;;86.57;30.63;;;;;;;2.22;100.00;101773.63;4907887;29;20082;-70
2021/03/08 06:05:42;;;;;;;84.25;30.45;;;;;;;2.20;100.00;101780.75;4902548;29;20043;-70
2021/03/08 06:08:13;;;;;;;83.47;31.42;;;;;;;2.20;100.00;101771.91;4907590;29;20103;-70
2021/03/08 06:10:47;;;;;;;84.35;30.70;;;;;;;2.20;100.00;101780.75;4908391;29;20043;-70
2021/03/08 06:13:17;;;;;;;85.88;32.88;;;;;;;2.19;100.00;101781.63;4911285;29;20115;-70
2021/03/08 06:15:49;;;;;;;86.22;31.50;;;;;;;2.19;100.00;101776.34;4911356;29;20040;-70
2021/03/08 06:18:15;;;;;;;79.10;30.10;;;;;;;2.19;100.00;101784.28;4910622;29;20044;-70
2021/03/08 06:20:41;;;;;;;83.55;30.73;;;;;;;2.25;100.00;101783.31;4909694;29;20054;-70
2021/03/08 06:23:07;;;;;;;80.43;32.70;;;;;;;2.27;100.00;101794.78;4910186;29;20044;-70
2021/03/08 06:25:34;;;;;;;92.00;33.83;;;;;;;2.26;100.00;101796.56;4911597;29;20429;-70
2021/03/08 06:27:59;;;;;;;99.22;36.22;;;;;;;2.29;100.00;101796.50;4894077;29;20540;-70
2021/03/08 06:30:26;;;;;;;99.38;36.30;;;;;;;2.29;100.00;101796.50;4910767;29;20071;-70
2021/03/08 06:32:52;;;;;;;99.47;38.10;;;;;;;2.48;100.00;101801.56;4914794;29;20070;-70
2021/03/08 06:35:18;;;;;;;98.13;36.28;;;;;;;2.40;100.00;101809.63;4911249;29;20609;-70
2021/03/08 06:37:46;;;;;;;104.18;36.03;;;;;;;2.43;100.00;101809.56;4915429;29;20036;-70
2021/03/08 06:40:12;;;;;;;111.70;40.15;;;;;;;2.42;100.00;101807.81;4909686;29;20492;-70
2021/03/08 06:42:38;;;;;;;127.35;44.83;;;;;;;2.45;100.00;101813.09;4894120;29;20039;-70
2021/03/08 06:45:06;;;;;;;132.68;47.13;;;;;;;2.43;100.00;101813.09;4909719;29;20039;-70
2021/03/08 06:47:32;;;;;;;113.68;42.63;;;;;;;2.49;100.00;101814.78;4911485;29;20048;-70
2021/03/08 06:49:58;;;;;;;106.35;39.83;;;;;;;2.59;100.00;101821.72;4915824;29;20094;-70
2021/03/08 06:52:24;;;;;;;124.75;47.50;;;;;;;2.60;100.00;101822.59;4911658;29;20487;-70
2021/03/08 06:55:01;;;;;;;112.53;41.17;;;;;;;2.63;100.00;101827.84;4908837;29;20052;-70
2021/03/08 06:57:34;;;;;;;111.75;41.75;;;;;;;2.61;100.00;101829.63;4909808;29;20067;-70
2021/03/08 07:00:04;;;;;;;114.38;43.58;;;;;;;2.67;100.00;101829.56;4909414;29;20029;-70
2021/03/08 07:02:38;;;;;;;102.55;38.65;;;;;;;2.78;100.00;101836.44;4910464;29;20043;-70
2021/03/08 07:05:04;;;;;;;98.10;37.47;;;;;;;2.77;100.00;101820.59;4910036;29;20032;-70
2021/03/08 07:07:53;;;;;;;103.22;38.72;;;;;;;2.85;100.00;101832.81;4910415;29;20036;-71
2021/03/08 07:10:41;;;;;;;102.65;38.45;;;;;;;2.80;100.00;101828.47;4909656;29;20044;-70
2021/03/08 07:13:08;;;;;;;101.10;36.33;;;;;;;2.80;100.00;101831.13;4905196;29;20040;-71
2021/03/08 07:15:53;;;;;;;103.85;38.30;;;;;;;2.88;100.00;101831.91;4909731;29;20044;-70
2021/03/08 07:18:23;;;;;;;102.53;37.20;;;;;;;2.96;100.00;101832.69;4909058;29;20043;-70
2021/03/08 07:20:52;;;;;;;103.80;39.70;;;;;;;2.94;100.00;101834.47;4904460;29;20471;-71
2021/03/08 07:23:25;;;;;;;108.40;40.17;;;;;;;3.02;100.00;101832.59;4908449;29;20111;-70
2021/03/08 07:26:09;;;;;;;113.60;43.22;;;;;;;3.05;100.00;101836.94;4909786;29;20642;-71
2021/03/08 07:28:34;;;;;;;;;;;;;;;3.09;100.00;101844.81;4909865;29;20029;-71
2021/03/08 07:30:59;;;;;;;101.43;37.95;;;;;;;3.15;100.00;101844.72;4892755;29;19914;-71
2021/03/08 07:33:25;;;;;;;116.55;41.63;;;;;;;3.19;100.00;101849.09;4908795;29;20063;-71
2021/03/08 07:35:53;;;;;;;101.47;38.63;;;;;;;3.23;100.00;101850.78;4909859;29;20043;-71
2021/03/08 07:38:32;;;;;;;113.18;43.15;;;;;;;3.36;99.35;101848.81;4910429;29;20055;-71
2021/03/08 07:41:13;;;;;;;112.00;42.58;;;;;;;3.48;99.16;101843.31;4909932;29;20127;-71
2021/03/08 07:43:40;;;;;;;106.22;41.78;;;;;;;3.55;98.67;101838.75;4908321;29;20048;-71
2021/03/08 07:46:24;;;;;;;105.03;38.60;;;;;;;3.66;98.07;101842.09;4896431;29;20032;-71
2021/03/08 07:48:49;;;;;;;117.03;41.85;;;;;;;3.69;97.31;101852.69;4899176;29;20052;-71
2021/03/08 07:51:15;;;;;;;97.22;36.97;;;;;;;3.75;97.46;101857.88;4909679;29;20127;-71
2021/03/08 07:53:40;;;;;;;112.88;41.92;;;;;;;3.72;97.28;101852.59;4908430;29;20266;-71
2021/03/08 07:56:08;;;;;;;119.18;48.63;;;;;;;3.86;96.65;101847.94;4908957;29;20032;-71
2021/03/08 07:58:35;;;;;;;112.70;46.88;;;;;;;3.89;96.44;101855.81;4909506;29;20050;-71
2021/03/08 08:01:05;;;;;;;101.53;40.60;;;;;;;3.91;95.95;101854.03;4890943;29;20032;-71
2021/03/08 08:03:32;;;;;;;107.72;40.67;;;;;;;3.99;95.14;101852.13;4906950;29;20115;-71
2021/03/08 08:06:07;;;;;;;101.65;38.53;;;;;;;4.02;94.74;101857.34;4907284;29;20168;-71
2021/03/08 08:08:36;;;;;;;105.15;38.55;;;;;;;4.14;93.64;101858.00;4910028;29;20503;-71
2021/03/08 08:11:04;;;;;;;99.15;37.90;;;;;;;4.16;93.85;101853.56;4912460;29;20036;-71
2021/03/08 08:13:34;;;;;;;99.82;38.03;;;;;;;4.08;94.25;101851.91;4916161;29;20032;-71
2021/03/08 08:16:05;;;;;;;94.68;38.25;;;;;;;4.11;93.98;101852.78;4912103;29;20050;-71
2021/03/08 08:18:34;;;;;;;97.32;37.60;;;;;;;4.23;93.97;101852.53;4909900;29;20043;-71
2021/03/08 08:21:00;;;;;;;95.43;35.72;;;;;;;4.20;93.95;101855.22;4912698;29;20796;-71
2021/03/08 08:23:34;;;;;;;97.10;37.22;;;;;;;4.24;93.30;101851.63;4922020;29;20091;-71
2021/03/08 08:25:59;;;;;;;107.47;38.80;;;;;;;4.28;93.43;101863.94;4908013;29;20115;-71
2021/03/08 08:28:26;;;;;;;105.60;37.80;;;;;;;4.25;93.40;101861.34;4909714;29;20115;-71
2021/03/08 08:30:56;;;;;;;105.88;37.42;;;;;;;4.33;93.45;101859.41;4911128;29;20387;-71
2021/03/08 08:33:27;;;;;;;100.80;41.72;;;;;;;4.51;92.38;101859.00;4910572;29;20034;-71
2021/03/08 08:36:08;;;;;;;97.47;36.70;;;;;;;4.53;92.75;101854.53;4912352;29;20048;-71
2021/03/08 08:38:33;;;;;;;91.40;36.05;;;;;;;4.68;91.87;101856.00;4918387;29;20040;-71
2021/03/08 08:41:17;;;;;;;102.38;38.65;;;;;;;4.81;91.59;101855.69;4909703;29;20099;-71
2021/03/08 08:43:43;;;;;;;94.35;36.58;;;;;;;4.74;91.44;101855.88;4911121;29;20055;-71
2021/03/08 08:46:26;;;;;;;98.25;37.08;;;;;;;4.72;92.08;101850.59;4911192;29;20036;-71
2021/03/08 08:49:21;;;;;;;89.90;35.50;;;;;;;4.85;91.42;101845.88;4911222;29;20538;-71
2021/03/08 08:51:53;;;;;;;87.80;35.38;;;;;;;4.91;89.79;101853.69;4909549;29;20036;-71
2021/03/08 08:54:27;;;;;;;94.13;36.13;;;;;;;4.78;89.72;101861.09;4907039;29;20302;-71
2021/03/08 08:57:06;;;;;;;89.90;35.10;;;;;;;4.81;89.67;101852.19;4909305;29;20035;-71
2021/03/08 08:59:34;;;;;;;94.20;36.50;;;;;;;4.94;89.87;101855.44;4913441;29;20713;-71
2021/03/08 09:04:44;;;;;;;91.78;36.63;;;;;;;4.86;89.15;101853.81;4910763;29;20064;-71
2021/03/08 09:07:26;;;;;;;95.40;36.88;;;;;;;4.96;89.57;101853.59;4916843;29;20118;-71
2021/03/08 09:09:54;;;;;;;93.30;36.50;;;;;;;4.90;90.12;101849.28;4911947;29;20394;-71
2021/03/08 09:12:40;;;;;;;90.68;36.58;;;;;;;5.01;89.13;101851.69;4911555;29;20072;-71
2021/03/08 09:15:12;;;;;;;89.10;35.55;;;;;;;5.04;89.22;101854.31;4906727;29;20039;-71
2021/03/08 09:17:40;;;;;;;91.75;37.65;;;;;;;5.12;89.31;101849.69;4919337;29;20035;-71
2021/03/08 09:20:06;;;;;;;86.28;36.17;;;;;;;5.16;88.57;101856.66;4911216;29;20484;-71
2021/03/08 09:22:34;;;;;;;90.55;37.25;;;;;;;5.18;88.76;101854.84;4918835;29;20052;-71
2021/03/08 09:25:08;;;;;;;113.97;40.47;;;;;;;5.19;89.60;101861.91;4909502;29;20107;-71
2021/03/08 09:27:36;;;;;;;91.63;35.85;;;;;;;5.22;90.05;101852.06;4894981;29;20095;-71
2021/03/08 09:30:05;;;;;;;97.95;38.60;;;;;;;5.50;88.89;101849.59;4908077;29;20275;-71
2021/03/08 09:32:30;;;;;;;95.65;36.03;;;;;;;5.57;87.86;101853.84;4909850;29;20091;-71
2021/03/08 09:35:08;;;;;;;91.95;36.85;;;;;;;5.46;86.76;101845.25;4909641;29;20713;-71
2021/03/08 09:37:34;;;;;;;85.22;35.80;;;;;;;5.50;87.28;101848.72;4895347;29;20107;-71
2021/03/08 09:40:01;;;;;;;90.22;35.40;;;;;;;5.54;87.61;101843.28;4909133;29;20028;-71
2021/03/08 09:42:35;;;;;;;84.28;35.60;;;;;;;5.65;87.64;101851.00;4909179;29;20047;-71
2021/03/08 09:45:01;;;;;;;93.45;35.67;;;;;;;5.56;86.98;101846.78;4910964;29;20452;-71
2021/03/08 09:47:40;;;;;;;90.03;35.42;;;;;;;5.62;87.36;101851.94;4920616;29;20047;-71
2021/03/08 09:50:06;;;;;;;88.20;35.78;;;;;;;5.51;87.49;101843.34;4907234;29;20176;-71
2021/03/08 09:52:37;;;;;;;87.90;35.28;;;;;;;5.58;87.02;101847.63;4910236;29;20518;-71
2021/03/08 09:55:04;;;;;;;89.07;34.83;;;;;;;5.60;86.36;101851.13;4908125;29;20190;-71
2021/03/08 09:57:38;;;;;;;88.45;33.80;;;;;;;5.51;87.24;101842.47;4913201;29;20399;-71
2021/03/08 10:00:11;;;;;;;94.35;34.70;;;;;;;5.51;88.38;101845.13;4912681;29;20040;-71
2021/03/08 10:02:37;;;;;;;90.97;34.72;;;;;;;5.60;88.11;101850.25;4914923;29;20087;-71
2021/03/08 10:05:08;;;;;;;87.03;34.15;;;;;;;5.57;88.60;101847.66;4904871;29;20459;-71
2021/03/08 10:07:34;;;;;;;93.18;35.90;;;;;;;5.63;89.04;101851.03;4920269;29;20697;-71
2021/03/08 10:10:16;;;;;;;89.70;35.85;;;;;;;5.60;89.00;101853.78;4912708;29;20028;-71
2021/03/08 10:12:42;;;;;;;90.13;34.97;;;;;;;5.70;88.04;101855.28;4898888;29;20035;-71
2021/03/08 10:15:10;;;;;;;83.65;33.78;;;;;;;5.49;88.70;101863.81;4908273;29;20036;-71
2021/03/08 10:17:51;;;;;;;91.93;35.55;;;;;;;5.50;89.33;101860.25;4908939;29;20123;-71
2021/03/08 10:20:17;;;;;;;97.28;34.72;;;;;;;5.48;89.75;101870.06;4904022;29;20044;-71
2021/03/08 10:22:43;;;;;;;91.65;35.05;;;;;;;5.53;91.39;101867.28;4903451;29;20043;-71
2021/03/08 10:25:32;;;;;;;98.65;36.95;;;;;;;5.46;92.26;101860.38;4903093;29;20044;-71
2021/03/08 10:27:59;;;;;;;102.97;34.70;;;;;;;5.56;92.75;101868.06;4900979;29;20057;-71
2021/03/08 10:30:28;;;;;;;108.90;36.08;;;;;;;5.45;93.10;101869.25;4903415;29;20054;-71
2021/03/08 10:33:01;;;;;;;104.10;36.17;;;;;;;5.39;94.26;101864.97;4884148;29;20130;-71
2021/03/08 10:35:28;;;;;;;98.18;35.80;;;;;;;5.39;94.51;101867.63;4901881;29;20376;-71
2021/03/08 10:37:54;;;;;;;106.95;37.58;;;;;;;5.47;94.20;101860.34;4906835;29;20082;-72
2021/03/08 10:40:21;;;;;;;99.45;36.63;;;;;;;5.42;93.82;101859.59;4908100;29;20547;-71
2021/03/08 10:42:49;;;;;;;100.43;36.78;;;;;;;5.61;93.83;101863.53;4909405;29;20666;-71
2021/03/08 10:45:15;;;;;;;102.30;36.72;;;;;;;5.61;94.00;101858.22;4907147;29;20638;-71
2021/03/08 10:47:40;;;;;;;100.57;36.38;;;;;;;5.72;93.29;101857.91;4903013;29;20042;-72
2021/03/08 10:50:07;;;;;;;98.93;37.13;;;;;;;5.78;93.31;101860.41;4901630;29;20435;-71
2021/03/08 10:52:33;;;;;;;99.18;35.40;;;;;;;5.81;93.32;101856.78;4902615;29;20036;-72
2021/03/08 10:54:58;;;;;;;100.90;36.60;;;;;;;6.05;92.38;101862.34;4901240;29;20146;-71
2021/03/08 10:57:25;;;;;;;98.68;38.03;;;;;;;6.12;91.38;101855.06;4903553;29;20051;-72
2021/03/08 10:59:53;;;;;;;97.07;37.75;;;;;;;6.32;90.43;101863.38;4901571;29;20036;-72
2021/03/08 11:02:20;;;;;;;98.20;36.25;;;;;;;6.25;90.09;101852.94;4902244;29;20071;-71
2021/03/08 11:04:47;;;;;;;96.32;35.90;;;;;;;6.31;88.89;101864.31;4901095;29;20041;-72
2021/03/08 11:07:12;;;;;;;89.15;36.58;;;;;;;6.29;88.27;101859.94;4903143;29;20047;-71
2021/03/08 11:09:44;;;;;;;96.30;36.70;;;;;;;6.32;89.49;101855.38;4904533;29;20044;-72
2021/03/08 11:12:18;;;;;;;98.50;37.88;;;;;;;6.41;89.13;101862.25;4909281;29;20700;-72
2021/03/08 11:14:54;;;;;;;101.45;34.80;;;;;;;6.54;88.31;101862.78;4907529;29;20088;-72
2021/03/08 11:17:48;;;;;;;92.07;33.67;;;;;;;6.36;89.53;101864.16;4913767;29;20443;-72
2021/03/08 11:20:23;;;;;;;92.53;34.50;;;;;;;6.44;89.79;101865.72;4874844;29;20052;-72
2021/03/08 11:22:55;;;;;;;96.85;35.08;;;;;;;6.39;89.31;101867.63;4914662;29;20127;-72
2021/03/08 11:25:31;;;;;;;90.72;34.45;;;;;;;6.38;89.96;101870.34;4901388;29;20566;-71
2021/03/08 11:27:58;;;;;;;93.78;33.65;;;;;;;6.47;89.15;101864.75;4885539;29;20139;-72
2021/03/08 11:30:25;;;;;;;88.90;35.08;;;;;;;6.44;89.52;101867.50;4902380;29;20447;-72
2021/03/08 11:32:56;;;;;;;92.75;35.42;;;;;;;6.54;88.88;101865.44;4900557;29;20052;-72